Time;durP1;ratioP1;P1;durP2;ratioP2;P2;SDS_P1;SDS_P2;PMS_P1;PMS_P2;Temp;Humidity;BMP_temperature;BMP_pressure;BME280_temperature;BME280_humidity;BME280_pressure;Samples;Min_cycle;Max_cycle;Signal;HPM_P1;HPM_P2
2022/11/29 00:02:20;;;;;;;31.83;23.60;;;4.50;99.90;;;4.57;88.34;97740.38;5028856;28;21249;-75
2022/11/29 00:04:47;;;;;;;32.17;22.17;;;4.60;99.90;;;4.51;87.16;97742.78;5028787;28;20977;-75
2022/11/29 00:07:15;;;;;;;29.40;21.70;;;4.60;99.90;;;4.31;88.11;97736.28;5033551;28;20450;-76
2022/11/29 00:09:43;;;;;;;32.50;21.47;;;4.60;99.60;;;4.32;88.17;97740.59;5027809;28;20474;-75
2022/11/29 00:12:13;;;;;;;31.30;23.80;;;4.50;99.90;;;4.21;87.74;97734.72;5026413;28;20458;-74
2022/11/29 00:14:41;;;;;;;30.63;22.37;;;4.50;99.60;;;4.18;88.15;97742.25;5028542;28;20459;-75
2022/11/29 00:17:09;;;;;;;30.90;22.40;;;4.50;99.20;;;4.30;88.02;97723.91;5031183;28;20911;-74
2022/11/29 00:19:37;;;;;;;32.53;24.23;;;4.50;99.60;;;4.15;89.02;97730.06;5046587;28;20500;-74
2022/11/29 00:22:05;;;;;;;30.67;21.50;;;4.40;99.70;;;4.17;88.00;97721.88;5043744;28;20521;-71
2022/11/29 00:24:35;;;;;;;36.70;23.37;;;4.40;99.70;;;3.75;88.46;97651.91;5025912;28;20488;-76
2022/11/29 00:27:02;;;;;;;33.97;22.00;;;4.40;99.80;;;4.27;87.96;97734.97;5023706;28;20451;-75
2022/11/29 00:29:30;;;;;;;31.80;23.33;;;4.40;99.90;;;4.33;88.11;97718.22;5034563;28;20497;-73
2022/11/29 00:31:57;;;;;;;35.00;23.00;;;4.40;99.90;;;4.23;88.08;97724.66;5032722;28;20453;-74
2022/11/29 00:34:24;;;;;;;31.53;22.40;;;4.40;99.90;;;4.23;87.56;97713.09;5028879;28;20457;-75
2022/11/29 00:36:52;;;;;;;27.77;21.73;;;4.50;99.80;;;3.90;88.18;97676.84;5025354;28;20484;-76
2022/11/29 00:39:19;;;;;;;34.23;23.47;;;4.40;99.90;;;4.19;88.61;97723.38;5027576;28;20937;-74
2022/11/29 00:41:47;;;;;;;33.67;22.70;;;4.40;99.90;;;4.25;87.92;97727.16;5027250;28;21197;-74
2022/11/29 00:44:15;;;;;;;31.70;21.97;;;4.40;99.90;;;4.08;88.47;97716.59;5026803;28;20474;-76
2022/11/29 00:46:42;;;;;;;34.47;24.97;;;4.40;99.90;;;4.17;88.58;97725.41;5039762;28;20469;-74
2022/11/29 00:49:10;;;;;;;32.67;22.80;;;4.30;99.90;;;4.20;87.83;97725.03;5029182;28;20464;-75
2022/11/29 00:51:37;;;;;;;28.73;22.97;;;4.40;99.90;;;4.39;87.27;97730.84;5024533;28;20507;-74
2022/11/29 00:54:05;;;;;;;29.87;22.90;;;4.40;99.90;;;4.20;87.91;97721.50;5022899;28;20458;-73
2022/11/29 00:56:32;;;;;;;31.37;23.10;;;4.40;99.90;;;4.12;87.66;97717.06;5037091;28;20510;-75
2022/11/29 00:59:00;;;;;;;32.23;22.37;;;4.30;99.30;;;4.23;87.77;97723.81;5045884;28;20504;-75
2022/11/29 01:01:28;;;;;;;30.57;21.83;;;4.40;99.70;;;4.00;88.29;97727.38;5048116;28;20565;-74
2022/11/29 01:03:55;;;;;;;33.33;22.03;;;4.30;99.10;;;3.94;89.51;97720.91;5057147;28;20446;-74
2022/11/29 01:06:22;;;;;;;33.33;23.80;;;4.20;99.90;;;4.09;88.09;97717.44;5050837;28;20450;-74
2022/11/29 01:08:50;;;;;;;31.57;22.40;;;4.30;99.90;;;4.20;87.54;97729.53;5033932;28;20459;-74
2022/11/29 01:11:20;;;;;;;30.13;22.40;;;4.30;99.90;;;4.40;87.23;97719.13;5027533;28;20455;-74
2022/11/29 01:13:48;;;;;;;34.40;24.57;;;4.40;99.80;;;4.44;86.99;97725.78;5029782;28;20462;-73
2022/11/29 01:16:17;;;;;;;30.90;22.50;;;4.50;98.90;;;4.28;87.61;97713.41;5036065;28;20459;-73
2022/11/29 01:18:45;;;;;;;31.10;22.03;;;4.40;99.40;;;4.20;87.85;97695.59;5011662;28;20463;-74
2022/11/29 01:21:15;;;;;;;35.40;23.00;;;4.40;99.80;;;4.15;88.12;97719.38;5032051;28;21034;-77
2022/11/29 01:23:44;;;;;;;33.33;24.33;;;4.40;99.40;;;4.29;87.56;97722.25;5035817;28;20480;-72
2022/11/29 01:26:14;;;;;;;31.47;22.90;;;4.40;99.90;;;3.69;88.28;97626.75;5045530;28;20474;-77
2022/11/29 01:28:44;;;;;;;30.67;22.20;;;4.40;99.90;;;4.10;88.23;97727.13;5036872;28;20445;-74
2022/11/29 01:31:18;;;;;;;31.57;21.77;;;4.30;99.90;;;4.03;88.30;97724.31;5034609;28;20457;-75
2022/11/29 01:33:45;;;;;;;33.40;24.20;;;4.30;99.90;;;4.04;89.39;97726.00;5049804;28;20453;-74
2022/11/29 01:36:14;;;;;;;33.10;23.20;;;4.30;99.90;;;3.64;89.03;97637.97;5020743;28;20604;-74
2022/11/29 01:38:42;;;;;;;36.60;24.33;;;4.30;99.90;;;4.04;88.66;97730.53;5033176;28;20445;-74
2022/11/29 01:41:14;;;;;;;32.47;23.70;;;4.30;99.90;;;4.07;88.49;97732.81;5050848;28;20832;-74
2022/11/29 01:44:06;;;;;;;35.27;24.33;;;4.30;99.90;;;4.10;88.47;97725.28;5033676;28;21422;-75
2022/11/29 01:46:38;;;;;;;35.80;24.97;;;4.30;99.90;;;4.04;88.40;97714.47;5048065;28;20458;-73
2022/11/29 01:49:10;;;;;;;35.60;24.53;;;4.30;99.90;;;4.14;88.37;97716.91;5025942;28;20561;-74
2022/11/29 01:51:40;;;;;;;33.87;24.40;;;4.30;99.90;;;4.04;89.11;97722.50;5031823;28;20527;-75
2022/11/29 01:54:10;;;;;;;35.47;25.27;;;4.30;99.90;;;4.14;88.58;97723.06;5030364;28;20465;-74
2022/11/29 01:56:38;;;;;;;34.93;25.00;;;4.30;99.90;;;4.04;88.75;97722.50;5032787;28;20841;-77
2022/11/29 01:59:10;;;;;;;34.70;24.70;;;4.20;99.90;;;3.82;88.98;97712.47;5042428;28;21229;-78
2022/11/29 02:01:39;;;;;;;36.00;24.83;;;4.20;99.90;;;4.04;89.45;97719.81;5030612;28;20484;-77
2022/11/29 02:04:07;;;;;;;36.97;25.47;;;4.20;99.90;;;3.94;89.65;97726.25;5032854;28;20519;-76
2022/11/29 02:06:37;;;;;;;34.37;24.77;;;4.20;99.90;;;4.05;89.58;97718.81;5031818;28;20465;-74
2022/11/29 02:09:05;;;;;;;37.40;26.67;;;4.20;99.90;;;3.61;88.71;97637.50;5035181;28;20514;-77
2022/11/29 02:12:01;;;;;;;36.60;26.53;;;4.20;99.90;;;4.06;89.14;97720.47;5034552;28;20464;-74
2022/11/29 02:14:52;;;;;;;34.80;25.33;;;4.30;99.90;;;3.63;88.41;97655.00;5031713;28;20480;-75
2022/11/29 02:17:33;;;;;;;35.97;24.47;;;4.30;99.90;;;3.89;89.00;97699.22;5021841;28;20467;-76
2022/11/29 02:20:44;;;;;;;35.97;24.90;;;4.30;99.90;;;4.10;88.07;97713.75;5035982;28;20791;-75
2022/11/29 02:23:43;;;;;;;34.43;24.80;;;4.30;99.90;;;4.20;88.17;97714.31;5030291;28;20456;-75
2022/11/29 02:26:24;;;;;;;33.07;25.00;;;4.30;99.90;;;4.16;88.78;97717.53;5029876;28;20974;-75
2022/11/29 02:29:31;;;;;;;35.70;26.20;;;4.40;99.90;;;3.97;89.53;97717.84;5030456;28;20860;-76
2022/11/29 02:32:50;;;;;;;39.13;24.50;;;4.30;99.90;;;3.95;88.71;97711.06;5028994;28;20997;-74
2022/11/29 02:35:37;;;;;;;33.53;24.27;;;4.30;99.90;;;4.00;88.65;97714.00;5015434;28;20457;-74
2022/11/29 02:38:21;;;;;;;32.00;23.90;;;4.30;99.90;;;3.74;88.74;97695.69;5027014;28;20476;-72
2022/11/29 02:41:21;;;;;;;34.07;24.90;;;4.20;99.90;;;3.77;89.86;97708.69;5042829;28;20472;-74
2022/11/29 02:44:21;;;;;;;33.67;23.90;;;4.20;99.90;;;3.85;90.12;97705.13;5017745;28;20480;-74
2022/11/29 02:47:05;;;;;;;32.33;23.10;;;4.20;99.90;;;4.01;89.30;97720.16;5024122;28;20956;-75
2022/11/29 02:50:12;;;;;;;36.13;23.93;;;4.20;99.90;;;3.91;88.52;97717.75;5028119;28;20945;-73
2022/11/29 02:52:51;;;;;;;32.13;23.27;;;4.20;99.90;;;4.13;88.03;97717.91;5021880;28;20937;-74
2022/11/29 02:55:28;;;;;;;34.97;23.80;;;4.20;99.90;;;4.20;87.97;97717.00;5024265;28;20458;-73
2022/11/29 02:58:04;;;;;;;31.13;22.23;;;4.30;99.90;;;4.21;86.74;97715.13;5027922;28;20456;-75
2022/11/29 03:00:35;;;;;;;32.67;22.40;;;4.30;99.40;;;3.88;87.99;97710.94;5024886;28;20478;-75
2022/11/29 03:03:14;;;;;;;32.10;22.33;;;4.20;98.40;;;3.90;88.31;97730.28;5027827;28;20678;-74
2022/11/29 03:05:50;;;;;;;34.17;24.27;;;4.20;99.00;;;4.09;88.24;97722.78;5019255;28;20485;-73
2022/11/29 03:08:31;;;;;;;31.37;22.70;;;4.20;99.70;;;4.03;87.28;97702.13;5030258;28;20457;-74
2022/11/29 03:11:17;;;;;;;31.30;22.70;;;4.30;99.20;;;4.30;86.89;97729.25;5031296;28;20469;-74
2022/11/29 03:14:04;;;;;;;28.40;21.60;;;4.30;98.90;;;4.13;86.92;97721.41;5027329;28;20456;-75
2022/11/29 03:16:45;;;;;;;29.37;20.67;;;4.30;98.10;;;4.09;87.68;97733.47;5041435;28;20641;-75
2022/11/29 03:19:35;;;;;;;29.30;22.63;;;4.30;98.30;;;3.94;88.01;97736.94;5029381;28;20457;-75
2022/11/29 03:22:14;;;;;;;34.50;21.20;;;4.30;97.90;;;4.08;88.00;97737.16;5028061;28;20552;-74
2022/11/29 03:24:50;;;;;;;30.97;22.97;;;4.30;99.30;;;4.19;87.05;97731.38;5029226;28;20450;-74
2022/11/29 03:27:23;;;;;;;33.47;22.70;;;4.40;99.50;;;4.03;87.83;97747.56;5039420;28;20462;-75
2022/11/29 03:29:56;;;;;;;33.63;23.33;;;4.40;97.90;;;4.04;88.09;97741.22;5040559;28;20535;-75
2022/11/29 03:32:31;;;;;;;33.30;24.10;;;4.30;98.60;;;4.07;87.86;97732.81;5034883;28;20526;-76
2022/11/29 03:35:08;;;;;;;33.73;22.30;;;4.30;99.10;;;3.94;87.97;97704.00;5044251;28;20975;-73
2022/11/29 03:37:47;;;;;;;32.60;23.90;;;4.40;99.40;;;4.24;88.13;97742.34;5024345;28;20457;-73
2022/11/29 03:40:18;;;;;;;35.30;24.50;;;4.40;99.50;;;4.06;88.53;97744.53;5021357;28;20492;-74
2022/11/29 03:42:55;;;;;;;33.03;24.17;;;4.40;98.30;;;4.11;88.54;97744.81;5025882;28;20461;-73
2022/11/29 03:45:29;;;;;;;32.17;23.10;;;4.40;99.90;;;4.15;87.87;97747.97;5023038;28;20484;-75
2022/11/29 03:48:04;;;;;;;31.93;23.40;;;4.40;99.00;;;4.22;88.13;97754.25;5041232;28;20480;-73
2022/11/29 03:50:37;;;;;;;32.10;24.17;;;4.40;99.50;;;4.16;88.16;97750.44;5047280;28;20465;-75
2022/11/29 03:53:16;;;;;;;33.83;23.60;;;4.40;99.30;;;4.21;88.48;97755.25;5043044;28;20453;-75
2022/11/29 03:55:53;;;;;;;30.37;21.90;;;4.40;99.80;;;4.32;87.98;97729.91;5040286;28;20757;-73
2022/11/29 03:58:39;;;;;;;33.73;23.50;;;4.40;99.90;;;4.24;87.67;97725.47;5041090;28;21017;-74
2022/11/29 04:01:44;;;;;;;29.43;21.67;;;4.40;99.90;;;4.04;89.22;97738.53;5034530;28;21004;-73
2022/11/29 04:05:08;;;;;;;37.80;23.70;;;4.40;99.90;;;4.15;89.55;97748.78;5026421;28;20454;-74
2022/11/29 04:08:17;;;;;;;30.03;21.97;;;4.40;99.90;;;4.17;88.79;97735.25;5024372;28;20450;-75
2022/11/29 04:11:05;;;;;;;31.83;23.00;;;4.40;99.90;;;4.25;88.92;97738.66;5023120;28;20464;-75
2022/11/29 04:14:16;;;;;;;34.10;23.60;;;4.40;99.90;;;4.49;87.71;97750.16;5026832;28;20478;-74
2022/11/29 04:17:25;;;;;;;31.70;22.63;;;4.50;99.90;;;4.32;88.80;97748.63;5001948;28;20469;-76
2022/11/29 04:20:46;;;;;;;33.43;22.80;;;4.50;99.60;;;4.30;87.82;97740.81;5043571;28;21255;-74
2022/11/29 04:24:22;;;;;;;29.63;22.63;;;4.50;99.90;;;4.35;88.12;97738.41;5023859;28;20972;-73
2022/11/29 04:27:43;;;;;;;32.70;23.37;;;4.50;99.90;;;4.52;88.05;97747.09;4958263;28;20490;-74
2022/11/29 04:30:19;;;;;;;30.53;22.30;;;4.60;99.90;;;4.20;88.80;97761.63;5029507;28;20850;-73
2022/11/29 04:33:55;;;;;;;31.90;22.10;;;4.50;99.70;;;4.20;89.75;97757.13;5042664;28;20458;-72
2022/11/29 04:37:00;;;;;;;32.93;23.17;;;4.50;99.90;;;4.31;89.03;97753.16;5012832;28;20518;-73
2022/11/29 04:39:49;;;;;;;33.93;23.30;;;4.60;99.90;;;4.20;89.83;97765.13;5030736;28;20457;-82
2022/11/29 04:42:48;;;;;;;30.50;24.20;;;4.50;99.90;;;4.33;90.15;97764.50;5026272;28;20465;-81
2022/11/29 04:46:03;;;;;;;30.73;22.97;;;4.50;99.90;;;4.16;89.61;97766.50;5020905;28;20473;-82
2022/11/29 04:49:17;;;;;;;31.17;23.00;;;4.50;99.90;;;4.24;90.23;97771.78;5028356;28;20463;-80
2022/11/29 04:52:10;;;;;;;34.70;25.10;;;4.50;99.90;;;4.25;90.07;97770.75;5023345;28;20461;-83
2022/11/29 04:54:48;;;;;;;34.10;22.70;;;4.40;99.90;;;4.13;90.89;97772.19;5035802;28;20451;-81
2022/11/29 04:57:27;;;;;;;36.97;23.23;;;4.40;99.90;;;4.27;90.74;97775.09;5030313;28;20462;-81
2022/11/29 05:00:06;;;;;;;35.03;25.70;;;4.50;99.90;;;4.26;90.89;97771.63;5030119;28;20469;-81
2022/11/29 05:02:42;;;;;;;34.97;26.57;;;4.40;99.90;;;4.27;90.79;97767.06;5033983;28;20569;-79
2022/11/29 05:05:24;;;;;;;33.30;23.83;;;4.50;99.90;;;4.07;90.66;97733.63;5045039;28;20465;-82
2022/11/29 05:08:07;;;;;;;32.80;24.63;;;4.50;99.90;;;4.22;91.75;97781.84;5025857;28;20470;-82
2022/11/29 05:10:47;;;;;;;36.73;26.33;;;4.50;99.90;;;4.27;91.75;97777.78;5023279;28;20458;-81
2022/11/29 05:13:25;;;;;;;40.83;24.43;;;4.50;99.90;;;4.18;91.94;97779.69;5016263;28;20471;-80
2022/11/29 05:16:16;;;;;;;36.53;25.73;;;4.50;99.90;;;4.13;91.56;97769.53;5042045;28;20464;-81
2022/11/29 05:19:04;;;;;;;35.50;25.87;;;4.50;99.90;;;4.23;91.48;97782.66;5036365;28;20449;-79
2022/11/29 05:21:47;;;;;;;35.77;25.50;;;4.50;99.90;;;4.18;91.32;97785.03;5033468;28;20458;-80
2022/11/29 05:24:35;;;;;;;36.83;25.10;;;4.50;99.90;;;4.11;92.48;97775.06;5023273;28;20999;-79
2022/11/29 05:27:16;;;;;;;36.47;26.20;;;4.50;99.90;;;4.16;92.11;97779.84;5025437;28;20479;-82
2022/11/29 05:29:52;;;;;;;39.90;24.53;;;4.50;99.90;;;3.96;93.51;97772.34;5014066;28;20509;-81
2022/11/29 05:32:31;;;;;;;41.33;27.03;;;4.40;99.90;;;4.17;91.97;97780.69;5026115;28;20454;-81
2022/11/29 05:35:36;;;;;;;36.80;25.50;;;4.50;99.90;;;4.13;92.67;97790.91;5029386;28;23132;-80
2022/11/29 05:38:19;;;;;;;35.80;24.37;;;4.50;99.90;;;4.25;91.96;97792.16;5013288;28;20482;-79
2022/11/29 05:41:03;;;;;;;36.40;25.33;;;4.50;99.90;;;3.95;91.35;97727.09;5019898;28;20470;-74
2022/11/29 05:43:48;;;;;;;37.87;25.47;;;4.60;99.90;;;4.33;91.91;97787.75;5023167;28;20880;-73
2022/11/29 05:46:22;;;;;;;38.60;25.20;;;4.60;99.90;;;4.47;91.22;97800.31;5020616;28;20842;-73
2022/11/29 05:49:00;;;;;;;34.30;24.17;;;4.70;99.90;;;4.56;90.89;97790.41;5021399;28;20634;-75
2022/11/29 05:51:41;;;;;;;32.00;23.30;;;4.80;99.90;;;4.45;90.82;97799.66;5023227;28;20469;-73
2022/11/29 05:54:24;;;;;;;36.00;23.83;;;4.70;99.90;;;4.30;91.15;97769.38;5036742;28;20450;-73
2022/11/29 05:57:06;;;;;;;38.50;26.20;;;4.70;99.90;;;4.35;91.74;97817.84;5015983;28;21072;-73
2022/11/29 05:59:38;;;;;;;37.43;25.67;;;4.70;99.90;;;4.63;90.54;97809.22;5032066;28;20462;-73
2022/11/29 06:02:23;;;;;;;33.90;24.20;;;4.70;99.90;;;4.66;90.39;97804.31;5033387;28;20469;-73
2022/11/29 06:05:06;;;;;;;36.57;24.67;;;4.80;99.90;;;4.64;90.32;97816.25;5023028;28;20469;-72
2022/11/29 06:07:41;;;;;;;30.93;23.90;;;4.80;99.90;;;4.48;91.25;97807.34;5023746;28;20557;-69
2022/11/29 06:10:16;;;;;;;33.00;23.63;;;4.70;99.90;;;4.52;91.09;97823.84;5033212;28;20479;-71
2022/11/29 06:12:58;;;;;;;33.70;24.40;;;4.70;99.90;;;4.59;90.81;97811.44;5022738;28;20929;-69
2022/11/29 06:16:11;;;;;;;34.20;24.80;;;4.80;99.90;;;4.41;90.85;97822.44;5017098;28;21195;-70
2022/11/29 06:19:20;;;;;;;33.33;23.77;;;4.70;99.90;;;4.62;89.87;97823.59;4999858;28;20453;-70
2022/11/29 06:22:01;;;;;;;34.13;24.17;;;4.80;99.90;;;4.64;90.59;97816.25;5021362;28;21068;-70
2022/11/29 06:24:49;;;;;;;37.13;25.13;;;4.80;99.90;;;4.68;90.71;97823.69;5023588;28;20465;-70
2022/11/29 06:27:49;;;;;;;42.13;24.93;;;4.80;99.90;;;4.71;91.57;97827.06;5022804;28;20622;-69
2022/11/29 06:30:20;;;;;;;35.50;25.23;;;4.80;99.90;;;4.82;90.63;97829.25;5027761;28;20809;-71
2022/11/29 06:32:56;;;;;;;34.47;23.30;;;4.90;99.90;;;4.73;89.74;97830.38;5025191;28;20465;-70
2022/11/29 06:35:44;;;;;;;33.80;23.40;;;4.90;99.90;;;4.55;90.36;97807.47;5025046;28;20454;-70
2022/11/29 06:38:18;;;;;;;31.23;22.73;;;4.90;99.90;;;4.75;90.39;97833.69;5018405;28;20982;-72
2022/11/29 06:40:46;;;;;;;40.13;25.50;;;4.90;99.90;;;4.36;90.22;97763.31;5038764;28;20945;-68
2022/11/29 06:43:14;;;;;;;37.50;25.27;;;4.90;99.90;;;4.69;90.80;97840.59;5022148;28;20461;-70
2022/11/29 06:45:47;;;;;;;35.30;24.70;;;4.90;99.90;;;4.76;90.48;97840.72;5022102;28;20497;-71
2022/11/29 06:48:21;;;;;;;42.63;25.30;;;4.90;99.90;;;5.05;91.46;97839.06;5024278;28;20553;-70
2022/11/29 06:50:56;;;;;;;32.80;23.00;;;5.00;99.90;;;5.36;89.86;97846.09;5036263;28;20602;-69
2022/11/29 06:53:36;;;;;;;32.70;23.77;;;5.30;99.90;;;5.07;89.12;97845.06;5021451;28;20457;-69
2022/11/29 06:56:17;;;;;;;33.23;24.27;;;5.30;99.90;;;4.91;89.44;97844.22;5045944;28;20524;-70
2022/11/29 06:58:58;;;;;;;36.40;23.87;;;5.20;99.90;;;4.94;90.27;97851.06;5043810;28;20785;-69
2022/11/29 07:01:35;;;;;;;35.37;24.13;;;5.10;99.90;;;4.99;90.06;97846.00;5038827;28;20812;-69
2022/11/29 07:04:38;;;;;;;34.33;23.60;;;5.10;99.90;;;4.89;89.95;97858.81;5026828;28;20899;-69
2022/11/29 07:07:14;;;;;;;31.00;21.73;;;5.10;99.90;;;4.82;90.50;97851.53;5026032;28;20953;-69
2022/11/29 07:09:43;;;;;;;29.90;22.37;;;5.10;99.90;;;4.80;90.51;97852.69;5019526;28;20450;-71
2022/11/29 07:12:11;;;;;;;36.53;23.70;;;5.10;99.90;;;4.90;90.16;97858.63;5008984;28;20466;-72
2022/11/29 07:14:40;;;;;;;36.73;23.80;;;5.10;99.90;;;4.75;90.66;97863.13;5016810;28;20474;-71
2022/11/29 07:17:16;;;;;;;36.53;24.27;;;5.10;99.90;;;4.64;91.46;97859.06;5017329;28;20451;-74
2022/11/29 07:19:54;;;;;;;33.77;23.20;;;5.00;99.90;;;4.86;91.09;97873.41;5036433;28;20459;-76
2022/11/29 07:22:45;;;;;;;41.60;24.60;;;5.10;99.90;;;4.85;91.43;97871.72;5018529;28;20547;-73
2022/11/29 07:25:26;;;;;;;33.47;23.27;;;5.10;99.90;;;4.94;90.42;97875.19;5038398;28;20458;-74
2022/11/29 07:28:06;;;;;;;31.90;22.43;;;5.10;99.90;;;4.89;90.67;97880.22;5022242;28;20525;-73
2022/11/29 07:30:47;;;;;;;36.63;24.47;;;5.10;99.90;;;4.92;89.78;97871.81;5023926;28;20977;-73
2022/11/29 07:33:22;;;;;;;31.57;23.10;;;5.20;99.90;;;5.10;90.50;97884.88;5020147;28;22438;-74
2022/11/29 07:35:58;;;;;;;31.63;24.03;;;5.20;99.90;;;4.90;90.73;97889.91;5025278;28;20452;-72
2022/11/29 07:38:47;;;;;;;36.80;23.97;;;5.20;99.90;;;4.87;89.63;97874.22;5035865;28;20485;-73
2022/11/29 07:41:23;;;;;;;33.30;25.00;;;5.20;99.90;;;4.95;89.81;97882.19;5017416;28;20568;-73
2022/11/29 07:44:01;;;;;;;35.33;25.13;;;5.20;99.90;;;4.88;90.34;97875.88;5020504;28;20580;-74
2022/11/29 07:46:28;;;;;;;35.27;23.80;;;5.20;99.90;;;4.85;90.74;97881.59;5022339;28;20481;-73
2022/11/29 07:48:56;;;;;;;40.80;25.93;;;5.20;99.90;;;4.83;90.52;97881.78;5021480;28;20478;-71
2022/11/29 07:51:25;;;;;;;37.87;24.00;;;5.10;99.90;;;4.94;90.42;97877.84;5017952;28;20446;-74
2022/11/29 07:53:54;;;;;;;37.53;23.77;;;5.10;99.90;;;4.99;90.33;97883.47;5023133;28;20473;-73
2022/11/29 07:56:21;;;;;;;32.07;23.00;;;5.20;99.90;;;5.01;90.45;97884.13;5040166;28;20542;-74
2022/11/29 07:58:48;;;;;;;34.93;22.00;;;5.30;99.90;;;5.08;89.35;97884.22;5020871;28;20462;-74
2022/11/29 08:01:15;;;;;;;37.97;24.60;;;5.30;99.90;;;5.13;90.04;97872.97;5014903;28;20950;-73
2022/11/29 08:03:43;;;;;;;33.97;24.30;;;5.30;99.90;;;4.92;89.99;97863.78;5030476;28;20442;-72
2022/11/29 08:06:11;;;;;;;32.97;24.20;;;5.30;99.90;;;5.22;89.52;97882.56;5021319;28;20527;-74
2022/11/29 08:08:40;;;;;;;34.00;24.47;;;5.40;99.90;;;5.14;89.40;97882.66;5039602;28;20461;-71
2022/11/29 08:11:10;;;;;;;44.43;24.80;;;5.40;99.90;;;5.00;90.32;97893.19;5025055;28;20463;-74
2022/11/29 08:13:38;;;;;;;33.30;22.93;;;5.40;99.90;;;5.00;90.19;97903.03;5036595;28;20467;-71
2022/11/29 08:16:06;;;;;;;33.60;22.17;;;5.30;99.90;;;4.99;89.64;97893.34;5021769;28;20454;-72
2022/11/29 08:18:33;;;;;;;31.60;22.77;;;5.30;99.90;;;4.67;89.84;97848.81;5022666;28;20450;-72
2022/11/29 08:21:06;;;;;;;32.67;23.33;;;5.30;99.90;;;5.08;89.90;97902.97;5024690;28;20766;-73
2022/11/29 08:23:33;;;;;;;33.57;22.63;;;5.40;99.90;;;4.95;90.85;97908.97;5016802;28;20536;-73
2022/11/29 08:26:03;;;;;;;32.23;21.87;;;5.30;99.90;;;4.98;89.82;97913.94;5033588;28;20463;-74
2022/11/29 08:28:30;;;;;;;33.53;23.83;;;5.40;99.90;;;5.06;90.42;97910.38;5021659;28;20465;-71
2022/11/29 08:31:01;;;;;;;34.03;22.20;;;5.40;99.90;;;5.21;90.26;97907.69;5021641;28;20458;-73
2022/11/29 08:33:29;;;;;;;31.33;23.00;;;5.40;99.90;;;5.13;90.81;97910.47;5021954;28;20462;-74
2022/11/29 08:35:56;;;;;;;33.33;22.67;;;5.40;99.90;;;5.02;90.40;97909.06;5013349;28;20454;-74
2022/11/29 08:38:23;;;;;;;32.87;23.60;;;5.40;99.90;;;5.02;91.07;97912.56;5033767;28;21474;-72
2022/11/29 08:40:50;;;;;;;32.83;23.90;;;5.40;99.90;;;5.16;90.88;97915.44;5019002;28;20518;-74
2022/11/29 08:43:19;;;;;;;33.83;24.40;;;5.40;99.90;;;5.18;90.87;97922.28;5032614;28;20458;-70
2022/11/29 08:45:51;;;;;;;33.07;23.57;;;5.40;99.90;;;5.30;90.55;97914.63;5023034;28;20465;-71
2022/11/29 08:48:18;;;;;;;34.17;22.67;;;5.50;99.90;;;5.23;90.46;97914.53;5027482;28;20458;-72
2022/11/29 08:50:48;;;;;;;30.13;23.40;;;5.50;99.90;;;5.06;91.32;97919.22;5016657;28;20548;-72
2022/11/29 08:56:01;;;;;;;32.40;22.30;;;5.50;99.90;;;5.30;90.53;97920.00;5032919;28;21231;-67
2022/11/29 08:58:30;;;;;;;31.77;23.20;;;5.60;99.90;;;5.51;90.36;97919.25;5020232;28;20461;-66
2022/11/29 09:00:57;;;;;;;30.87;20.80;;;5.60;99.90;;;5.54;90.09;97923.44;5020394;28;20458;-67
2022/11/29 09:06:12;;;;;;;34.20;22.83;;;5.70;99.90;;;5.44;90.03;97920.19;5023769;28;20484;-66
2022/11/29 09:08:42;;;;;;;33.83;21.77;;;5.70;99.90;;;5.46;90.45;97926.19;5021917;28;20871;-67
2022/11/29 09:11:12;;;;;;;36.10;22.37;;;5.80;99.90;;;5.35;90.65;97940.88;5021208;28;20457;-76
2022/11/29 09:13:41;;;;;;;37.40;21.40;;;5.80;99.90;;;5.41;89.83;97939.31;5025401;28;20469;-67
2022/11/29 09:16:10;;;;;;;29.57;22.47;;;5.80;99.90;;;5.36;91.27;97940.69;5024773;28;20451;-69
2022/11/29 09:18:40;;;;;;;35.57;22.53;;;5.70;99.90;;;5.74;89.90;97942.44;5041333;28;20455;-68
2022/11/29 09:21:08;;;;;;;30.80;21.60;;;5.80;99.90;;;5.62;89.29;97942.06;5020324;28;20521;-69
2022/11/29 09:23:36;;;;;;;27.63;18.80;;;5.90;99.70;;;5.82;88.29;97944.19;5023696;28;20481;-71
2022/11/29 09:26:04;;;;;;;31.17;21.20;;;6.00;99.90;;;6.04;87.52;97946.97;5017477;28;20461;-70
2022/11/29 09:28:33;;;;;;;25.13;19.43;;;6.10;99.20;;;5.96;86.89;97940.66;5016395;28;20454;-68
2022/11/29 09:31:07;;;;;;;27.50;19.60;;;6.10;97.90;;;5.79;89.03;97947.25;5034490;28;20465;-71
2022/11/29 09:33:34;;;;;;;27.10;19.30;;;6.00;99.60;;;5.76;88.95;97942.25;5019978;28;20474;-68
2022/11/29 09:36:03;;;;;;;28.43;20.33;;;6.00;99.90;;;5.54;90.17;97952.91;5018386;28;20474;-69
2022/11/29 09:38:31;;;;;;;28.80;20.33;;;5.90;99.20;;;5.77;89.87;97950.13;5018232;28;20457;-70
2022/11/29 09:41:05;;;;;;;28.60;19.53;;;5.90;99.90;;;5.91;89.52;97953.78;5020509;28;20508;-69
2022/11/29 09:43:45;;;;;;;26.83;21.03;;;6.00;99.90;;;5.92;87.87;97950.09;5033018;28;20450;-69
2022/11/29 09:46:22;;;;;;;27.50;20.03;;;6.10;98.40;;;5.72;89.39;97959.75;5034019;28;20462;-70
2022/11/29 09:49:20;;;;;;;27.50;20.70;;;6.10;98.40;;;5.48;90.37;97957.16;5032144;28;20450;-70
2022/11/29 09:51:55;;;;;;;27.20;19.40;;;6.00;98.00;;;5.95;88.71;97951.56;5014771;28;20457;-69
2022/11/29 09:54:35;;;;;;;28.07;20.37;;;6.00;99.90;;;5.86;88.11;97955.38;5021923;28;20462;-68
2022/11/29 09:57:05;;;;;;;25.73;18.87;;;6.20;97.70;;;5.84;88.35;97944.84;5022315;28;20946;-68
2022/11/29 09:59:37;;;;;;;29.10;19.37;;;6.20;98.50;;;5.76;88.33;97955.66;5017347;28;20489;-69
2022/11/29 10:02:16;;;;;;;28.50;21.37;;;6.10;97.50;;;5.96;88.59;97942.50;5034053;28;20454;-68
2022/11/29 10:04:48;;;;;;;29.53;18.43;;;6.20;99.10;;;6.26;86.90;97949.69;5018509;28;20472;-69
2022/11/29 10:07:21;;;;;;;24.50;18.03;;;6.30;97.50;;;6.04;87.75;97957.69;5017472;28;20477;-68
2022/11/29 10:09:54;;;;;;;30.80;19.57;;;6.30;97.40;;;5.96;88.58;97959.41;5036890;28;20476;-69
2022/11/29 10:12:33;;;;;;;26.30;19.53;;;6.20;97.10;;;6.03;87.48;97948.00;5019486;28;20489;-68
2022/11/29 10:15:11;;;;;;;24.77;17.87;;;6.30;97.20;;;6.09;87.09;97956.13;5038828;28;20588;-69
2022/11/29 10:17:45;;;;;;;25.67;18.93;;;6.30;96.70;;;6.20;86.56;97960.16;5023230;28;20759;-68
2022/11/29 10:20:19;;;;;;;30.23;20.23;;;6.30;96.60;;;6.17;87.60;97957.00;5021189;28;20464;-67
2022/11/29 10:22:54;;;;;;;25.57;19.23;;;6.40;97.50;;;6.12;87.43;97951.41;5024334;28;20463;-70
2022/11/29 10:25:25;;;;;;;24.53;17.70;;;6.30;96.50;;;5.66;87.72;97905.00;5022403;28;20489;-69
2022/11/29 10:27:53;;;;;;;24.97;18.40;;;6.30;96.80;;;6.15;86.64;97957.22;5019560;28;20552;-69
2022/11/29 10:30:22;;;;;;;23.27;17.27;;;6.30;96.40;;;6.20;86.57;97948.59;5033235;28;21079;-69
2022/11/29 10:32:58;;;;;;;22.80;18.17;;;6.40;96.10;;;6.10;86.71;97962.31;5018383;28;20457;-69
2022/11/29 10:35:25;;;;;;;24.73;17.87;;;6.40;96.30;;;6.37;85.96;97951.88;5032516;28;20488;-67
2022/11/29 10:37:56;;;;;;;23.60;17.23;;;6.40;95.80;;;6.56;86.09;97946.91;5037288;28;20717;-71
2022/11/29 10:40:33;;;;;;;25.20;17.67;;;6.50;96.80;;;6.53;85.26;97953.50;5021014;28;20481;-69
2022/11/29 10:43:02;;;;;;;23.77;18.23;;;6.60;95.00;;;6.37;85.53;97949.19;5017884;28;20463;-71
2022/11/29 10:45:32;;;;;;;26.20;19.17;;;6.60;95.10;;;6.26;86.33;97949.69;5033880;28;20551;-71
2022/11/29 10:48:06;;;;;;;24.20;17.67;;;6.50;95.50;;;6.27;86.83;97948.66;5016611;28;20601;-69
2022/11/29 10:50:36;;;;;;;24.07;17.87;;;6.50;96.40;;;6.66;85.20;97950.91;5027074;28;20454;-70
2022/11/29 10:53:07;;;;;;;23.60;17.13;;;6.60;96.00;;;6.77;84.56;97949.59;5025693;28;20466;-70
2022/11/29 10:55:41;;;;;;;22.87;18.03;;;6.70;95.30;;;6.55;85.76;97950.59;5038972;28;20552;-69
2022/11/29 10:58:19;;;;;;;25.73;18.33;;;6.70;94.60;;;6.40;84.83;97943.44;5027906;28;20932;-69
2022/11/29 11:00:53;;;;;;;21.57;16.83;;;6.70;94.20;;;6.06;84.48;97904.69;5024108;28;20470;-70
2022/11/29 11:03:34;;;;;;;22.90;17.13;;;6.70;93.50;;;6.13;85.60;97945.81;5021974;28;20462;-69
2022/11/29 11:06:08;;;;;;;26.03;18.20;;;6.60;94.00;;;6.57;85.16;97954.78;5018315;28;20753;-69
2022/11/29 11:08:37;;;;;;;24.00;18.03;;;6.60;95.40;;;6.43;85.29;97953.78;5018609;28;20539;-71
2022/11/29 11:11:07;;;;;;;23.20;17.93;;;6.70;94.40;;;6.32;86.53;97957.81;5035317;28;20470;-70